Time;durP1;ratioP1;P1;durP2;ratioP2;P2;SDS_P1;SDS_P2;PMS_P1;PMS_P2;Temp;Humidity;BMP_temperature;BMP_pressure;BME280_temperature;BME280_humidity;BME280_pressure;Samples;Min_cycle;Max_cycle;Signal;HPM_P1;HPM_P2
2024/04/02 00:00:44;;;;;;;23.23;11.83;;;;;10.20;95555.00;;;;5019892;28;20205;-83
2024/04/02 00:03:34;;;;;;;10.27;9.00;;;;;10.30;95598.00;;;;5017374;28;20197;-84
2024/04/02 00:06:21;;;;;;;14.97;9.13;;;;;10.50;95607.00;;;;5024303;28;20821;-82
2024/04/02 00:09:10;;;;;;;33.87;14.50;;;;;10.80;95626.00;;;;5022378;28;20205;-82
2024/04/02 00:11:58;;;;;;;17.23;12.50;;;;;11.10;95623.00;;;;5020161;28;20607;-84
2024/04/02 00:14:45;;;;;;;20.87;12.90;;;;;11.00;95641.00;;;;5019355;28;20403;-83
2024/04/02 00:17:33;;;;;;;13.87;12.60;;;;;11.00;95648.00;;;;5020708;28;20312;-84
2024/04/02 00:20:22;;;;;;;24.57;12.73;;;;;11.20;95643.00;;;;5024313;28;20197;-84
2024/04/02 00:23:10;;;;;;;20.53;15.53;;;;;11.10;95639.00;;;;5023734;28;20205;-83
2024/04/02 00:26:01;;;;;;;32.83;29.90;;;;;10.80;95654.00;;;;5040278;28;20197;-82
2024/04/02 00:28:51;;;;;;;31.40;28.80;;;;;10.20;95652.00;;;;5023266;28;20241;-83
2024/04/02 00:31:39;;;;;;;31.27;28.30;;;;;10.40;95648.00;;;;5019248;28;20206;-83
2024/04/02 00:34:27;;;;;;;30.73;28.40;;;;;10.40;95642.00;;;;5013424;28;20223;-82
2024/04/02 00:37:16;;;;;;;48.17;42.97;;;;;10.70;95654.00;;;;5028041;28;20298;-82
2024/04/02 00:40:04;;;;;;;57.37;52.03;;;;;10.50;95650.00;;;;5018790;28;20228;-85
2024/04/02 00:42:51;;;;;;;105.07;76.70;;;;;10.80;95670.00;;;;5032356;28;20194;-82
2024/04/02 00:45:40;;;;;;;10.77;4.33;;;;;10.90;95667.00;;;;5036373;28;20270;-83
2024/04/02 00:48:27;;;;;;;10.60;3.77;;;;;10.50;95675.00;;;;5025259;28;20235;-85
2024/04/02 00:51:15;;;;;;;20.70;6.83;;;;;10.50;95677.00;;;;5021458;28;20223;-83
2024/04/02 00:54:04;;;;;;;12.77;4.33;;;;;10.70;95667.00;;;;5019195;28;20210;-82
2024/04/02 00:56:52;;;;;;;17.53;5.60;;;;;10.70;95679.00;;;;5033755;28;20206;-83
2024/04/02 00:59:39;;;;;;;11.60;3.90;;;;;10.70;95670.00;;;;5023713;28;20201;-84
2024/04/02 01:02:27;;;;;;;18.93;5.97;;;;;10.60;95678.00;;;;5022524;23;20202;-73
2024/04/02 01:05:14;;;;;;;15.63;5.33;;;;;10.90;95672.00;;;;4989890;28;20288;-73
2024/04/02 01:08:03;;;;;;;11.57;3.97;;;;;10.90;95670.00;;;;4975675;28;20202;-71
2024/04/02 01:10:52;;;;;;;6.73;2.53;;;;;10.70;95665.00;;;;4975594;28;20199;-71
2024/04/02 01:13:41;;;;;;;10.33;3.67;;;;;10.80;95679.00;;;;4972506;28;20202;-72
2024/04/02 01:16:28;;;;;;;10.30;3.73;;;;;10.30;95664.00;;;;4973381;28;20826;-71
2024/04/02 01:19:16;;;;;;;21.60;7.40;;;;;10.50;95652.00;;;;4975186;28;20214;-71
2024/04/02 01:22:04;;;;;;;14.13;4.93;;;;;10.70;95664.00;;;;4971791;28;20329;-71
2024/04/02 01:24:58;;;;;;;9.83;3.90;;;;;10.70;95668.00;;;;4975128;28;20228;-72
2024/04/02 01:27:47;;;;;;;11.00;4.27;;;;;10.70;95666.00;;;;4984507;28;20235;-71
2024/04/02 01:30:35;;;;;;;7.00;2.90;;;;;10.30;95673.00;;;;4974777;28;20557;-71
2024/04/02 01:33:22;;;;;;;9.27;3.43;;;;;10.00;95670.00;;;;4972252;28;20221;-71
2024/04/02 01:36:10;;;;;;;19.83;6.90;;;;;9.70;95668.00;;;;4974204;28;20210;-71
2024/04/02 01:38:58;;;;;;;8.17;3.10;;;;;9.90;95679.00;;;;4973135;28;20203;-71
2024/04/02 01:41:45;;;;;;;8.10;3.13;;;;;9.80;95675.00;;;;4971930;28;20225;-71
2024/04/02 01:44:35;;;;;;;13.53;4.90;;;;;9.70;95674.00;;;;4970775;28;20233;-73
2024/04/02 01:47:22;;;;;;;8.43;3.10;;;;;10.20;95684.00;;;;4967968;28;20641;-71
2024/04/02 01:50:10;;;;;;;17.33;5.97;;;;;10.10;95685.00;;;;4977250;28;20214;-72
2024/04/02 01:52:57;;;;;;;8.63;3.37;;;;;10.20;95678.00;;;;4964831;28;20215;-72
2024/04/02 01:55:46;;;;;;;7.43;2.83;;;;;10.20;95678.00;;;;4974387;28;20230;-72
2024/04/02 01:58:33;;;;;;;7.90;3.03;;;;;10.10;95686.00;;;;4975517;28;20201;-72
2024/04/02 02:01:22;;;;;;;16.37;5.70;;;;;9.90;95681.00;;;;4972541;28;20214;-71
2024/04/02 02:04:11;;;;;;;13.43;4.93;;;;;10.30;95678.00;;;;4971256;28;20230;-71
2024/04/02 02:06:58;;;;;;;12.13;4.47;;;;;10.00;95681.00;;;;4970620;28;20207;-71
2024/04/02 02:09:46;;;;;;;11.00;4.17;;;;;9.80;95683.00;;;;4968677;28;20203;-72
2024/04/02 02:12:33;;;;;;;9.17;3.40;;;;;10.30;95679.00;;;;4970839;28;20217;-72
2024/04/02 02:15:21;;;;;;;13.80;5.10;;;;;10.40;95695.00;;;;4965802;28;20276;-71
2024/04/02 02:18:10;;;;;;;15.33;5.57;;;;;10.30;95693.00;;;;4973354;28;20655;-71
2024/04/02 02:20:58;;;;;;;8.43;3.10;;;;;10.40;95692.00;;;;4968893;28;20202;-71
2024/04/02 02:23:46;;;;;;;5.90;2.33;;;;;9.80;95692.00;;;;4987845;28;20238;-71
2024/04/02 02:26:35;;;;;;;5.03;2.13;;;;;9.00;95705.00;;;;4973942;28;20249;-71
2024/04/02 02:29:25;;;;;;;13.63;5.30;;;;;9.90;95718.00;;;;4975066;28;20260;-71
2024/04/02 02:32:13;;;;;;;12.70;4.70;;;;;10.10;95726.00;;;;4966021;28;20202;-70
2024/04/02 02:35:02;;;;;;;6.30;2.50;;;;;9.70;95722.00;;;;4966948;28;20292;-71
2024/04/02 02:37:50;;;;;;;5.53;2.13;;;;;9.00;95727.00;;;;4971231;28;20626;-70
2024/04/02 02:40:37;;;;;;;8.40;3.23;;;;;9.20;95724.00;;;;4968090;28;20202;-70
2024/04/02 02:43:25;;;;;;;8.60;3.43;;;;;9.50;95715.00;;;;4974400;28;20234;-71
2024/04/02 02:46:12;;;;;;;15.67;5.67;;;;;9.50;95716.00;;;;4972524;28;20214;-71
2024/04/02 02:49:02;;;;;;;8.77;3.47;;;;;9.70;95722.00;;;;4973901;28;20585;-70
2024/04/02 02:51:50;;;;;;;10.67;3.93;;;;;9.90;95731.00;;;;4961386;28;20214;-70
2024/04/02 02:54:38;;;;;;;11.20;4.27;;;;;9.90;95750.00;;;;4975382;28;20711;-71
2024/04/02 02:57:25;;;;;;;8.00;3.13;;;;;9.50;95746.00;;;;4972117;28;20940;-70
2024/04/02 03:00:15;;;;;;;13.70;5.10;;;;;9.40;95744.00;;;;4969045;28;20202;-71
2024/04/02 03:03:02;;;;;;;8.50;3.20;;;;;8.50;95737.00;;;;4972545;28;20236;-70
2024/04/02 03:05:57;;;;;;;7.73;3.10;;;;;8.90;95749.00;;;;4969906;28;20232;-70
2024/04/02 03:08:46;;;;;;;7.10;2.80;;;;;9.30;95756.00;;;;4972830;28;20229;-71
2024/04/02 03:11:34;;;;;;;6.03;2.43;;;;;9.20;95761.00;;;;4972095;28;20207;-69
2024/04/02 03:14:21;;;;;;;12.40;4.90;;;;;9.50;95771.00;;;;4970646;28;20222;-70
2024/04/02 03:17:10;;;;;;;14.33;5.30;;;;;9.90;95782.00;;;;4970304;28;20206;-70
2024/04/02 03:19:57;;;;;;;6.03;2.53;;;;;9.90;95787.00;;;;4967250;28;20265;-70
2024/04/02 03:22:45;;;;;;;6.40;2.47;;;;;9.70;95769.00;;;;4972971;28;20280;-69
2024/04/02 03:25:33;;;;;;;7.07;2.73;;;;;9.60;95789.00;;;;4976297;28;20282;-68
2024/04/02 03:28:22;;;;;;;12.97;5.00;;;;;9.80;95799.00;;;;4974623;28;20217;-69
2024/04/02 03:31:10;;;;;;;15.17;5.67;;;;;9.90;95804.00;;;;4973432;28;20745;-69
2024/04/02 03:33:57;;;;;;;7.50;3.00;;;;;9.60;95801.00;;;;4973538;28;20229;-69
2024/04/02 03:36:45;;;;;;;10.80;4.03;;;;;9.90;95808.00;;;;4969282;28;20771;-69
2024/04/02 03:39:34;;;;;;;9.83;3.83;;;;;9.90;95810.00;;;;4963637;28;20762;-69
2024/04/02 03:42:24;;;;;;;9.43;3.80;;;;;9.90;95810.00;;;;4966481;28;20330;-69
2024/04/02 03:45:12;;;;;;;11.83;4.47;;;;;9.90;95809.00;;;;4973245;28;20234;-69
2024/04/02 03:47:59;;;;;;;4.80;2.03;;;;;9.80;95824.00;;;;4971779;28;20207;-71
2024/04/02 03:50:51;;;;;;;6.70;2.60;;;;;9.60;95815.00;;;;4965954;28;20210;-70
2024/04/02 03:53:39;;;;;;;7.50;2.90;;;;;9.80;95823.00;;;;4967379;28;20202;-71
2024/04/02 03:56:26;;;;;;;4.47;1.90;;;;;9.30;95824.00;;;;4972838;28;20207;-71
2024/04/02 03:59:15;;;;;;;16.47;6.13;;;;;8.70;95818.00;;;;4965478;28;20211;-71
2024/04/02 04:02:03;;;;;;;8.33;3.13;;;;;8.90;95827.00;;;;4959651;28;20203;-71
2024/04/02 04:04:51;;;;;;;7.53;2.83;;;;;8.60;95831.00;;;;4972316;28;20307;-74
2024/04/02 04:07:38;;;;;;;7.43;2.80;;;;;8.10;95834.00;;;;4973722;28;20202;-71
2024/04/02 04:10:26;;;;;;;3.77;1.70;;;;;8.20;95834.00;;;;4965718;28;20285;-75
2024/04/02 04:13:13;;;;;;;13.97;5.17;;;;;8.50;95837.00;;;;4961224;28;20638;-72
2024/04/02 04:16:04;;;;;;;8.73;3.37;;;;;8.50;95832.00;;;;4970198;28;20211;-70
2024/04/02 04:18:51;;;;;;;5.30;2.13;;;;;7.90;95837.00;;;;4967084;28;20259;-75
2024/04/02 04:21:39;;;;;;;4.80;1.97;;;;;8.20;95837.00;;;;4978112;28;20285;-73
2024/04/02 04:24:27;;;;;;;7.27;2.97;;;;;8.40;95847.00;;;;4976881;28;20280;-73
2024/04/02 04:27:15;;;;;;;11.47;4.37;;;;;8.80;95853.00;;;;4975923;28;20210;-72
2024/04/02 04:30:03;;;;;;;6.00;2.40;;;;;9.00;95861.00;;;;4970577;28;20207;-72
2024/04/02 04:32:53;;;;;;;7.00;2.77;;;;;9.20;95862.00;;;;4971524;28;20215;-73
2024/04/02 04:35:40;;;;;;;5.90;2.43;;;;;9.20;95866.00;;;;4975138;28;20230;-72
2024/04/02 04:38:29;;;;;;;7.03;2.80;;;;;8.60;95868.00;;;;4972239;28;20478;-72
2024/04/02 04:41:17;;;;;;;21.67;7.87;;;;;9.10;95874.00;;;;4971520;28;20212;-73
2024/04/02 04:44:04;;;;;;;8.67;3.50;;;;;9.30;95876.00;;;;4978115;28;20230;-72
2024/04/02 04:46:52;;;;;;;9.87;3.73;;;;;9.30;95875.00;;;;4972135;28;20365;-72
2024/04/02 04:49:41;;;;;;;11.50;4.07;;;;;9.30;95888.00;;;;4974535;28;20206;-72
2024/04/02 04:52:29;;;;;;;5.93;2.40;;;;;9.50;95894.00;;;;4968030;28;20265;-72
2024/04/02 04:55:16;;;;;;;18.30;6.73;;;;;9.00;95897.00;;;;4969836;28;20238;-73
2024/04/02 04:58:04;;;;;;;10.20;3.83;;;;;9.30;95901.00;;;;4969007;28;20285;-71
2024/04/02 05:00:52;;;;;;;9.37;3.90;;;;;9.10;95916.00;;;;4968839;28;20203;-72
2024/04/02 05:03:40;;;;;;;8.03;3.03;;;;;8.30;95920.00;;;;4961277;28;20273;-72
2024/04/02 05:06:32;;;;;;;7.30;2.97;;;;;8.40;95917.00;;;;4974173;28;20677;-71
2024/04/02 05:09:21;;;;;;;19.70;7.07;;;;;9.10;95925.00;;;;4971871;28;20223;-71
2024/04/02 05:12:08;;;;;;;10.77;4.30;;;;;9.30;95932.00;;;;4972841;28;20228;-72
2024/04/02 05:14:56;;;;;;;7.47;3.07;;;;;9.40;95939.00;;;;4972395;28;20219;-72
2024/04/02 05:17:43;;;;;;;8.40;3.70;;;;;8.90;95949.00;;;;4974333;28;20202;-71
2024/04/02 05:20:31;;;;;;;9.47;3.80;;;;;9.00;95953.00;;;;4966369;28;20217;-72
2024/04/02 05:23:21;;;;;;;16.90;6.27;;;;;8.90;95963.00;;;;4970583;28;21315;-71
2024/04/02 05:26:09;;;;;;;13.50;5.03;;;;;8.50;95974.00;;;;4974642;28;20615;-73
2024/04/02 05:28:56;;;;;;;6.70;2.73;;;;;8.70;95980.00;;;;4964077;28;20272;-70
2024/04/02 05:31:45;;;;;;;7.73;3.67;;;;;9.30;95967.00;;;;4988356;28;20210;-70
2024/04/02 05:34:32;;;;;;;11.97;5.10;;;;;9.50;95975.00;;;;4971789;28;20226;-68
2024/04/02 05:37:20;;;;;;;18.93;11.10;;;;;9.30;95980.00;;;;4965260;28;20219;-68
2024/04/02 05:40:09;;;;;;;7.33;3.43;;;;;8.80;95967.00;;;;4968083;28;20215;-69
2024/04/02 05:42:57;;;;;;;12.57;10.63;;;;;9.00;95974.00;;;;4974892;28;20590;-68
2024/04/02 05:45:44;;;;;;;10.33;3.87;;;;;9.60;95970.00;;;;4969522;28;20631;-68
2024/04/02 05:48:32;;;;;;;30.27;27.43;;;;;9.60;95975.00;;;;4968461;28;20698;-68
2024/04/02 05:51:20;;;;;;;71.07;53.17;;;;;9.60;95977.00;;;;4970578;28;20593;-68
2024/04/02 05:54:08;;;;;;;62.20;47.03;;;;;8.90;95971.00;;;;4981510;28;20701;-70
2024/04/02 05:56:57;;;;;;;12.57;8.13;;;;;9.00;95970.00;;;;4974830;28;20257;-68
2024/04/02 05:59:46;;;;;;;32.13;22.70;;;;;9.20;95974.00;;;;4967714;28;20277;-69
2024/04/02 06:02:33;;;;;;;41.17;37.00;;;;;9.40;95979.00;;;;4980161;28;20210;-68
2024/04/02 06:05:21;;;;;;;59.77;48.87;;;;;9.30;95981.00;;;;4969499;28;20695;-69
2024/04/02 06:08:08;;;;;;;18.93;15.87;;;;;9.50;95979.00;;;;4974893;28;20211;-69
2024/04/02 06:10:56;;;;;;;62.43;56.00;;;;;9.40;95994.00;;;;4975059;28;20268;-70
2024/04/02 06:13:46;;;;;;;8.60;6.10;;;;;9.30;95990.00;;;;4968936;28;20201;-68
2024/04/02 06:16:33;;;;;;;19.20;17.57;;;;;9.40;95976.00;;;;4972623;28;20677;-68
2024/04/02 06:19:21;;;;;;;23.23;15.30;;;;;9.60;95981.00;;;;4967417;28;20207;-69
2024/04/02 06:22:10;;;;;;;12.33;5.90;;;;;9.70;95981.00;;;;4970281;28;20204;-67
2024/04/02 06:24:57;;;;;;;13.83;12.70;;;;;9.90;95982.00;;;;4968574;28;20288;-68
2024/04/02 06:27:45;;;;;;;25.50;23.63;;;;;10.30;95994.00;;;;4966248;28;20198;-68
2024/04/02 06:30:33;;;;;;;35.90;32.63;;;;;10.70;95989.00;;;;4974343;28;20217;-68
2024/04/02 06:33:21;;;;;;;49.80;44.87;;;;;11.20;95996.00;;;;4971911;28;20582;-68
2024/04/02 06:36:09;;;;;;;7.07;2.77;;;;;11.60;96001.00;;;;4970818;28;20273;-69
2024/04/02 06:38:57;;;;;;;5.20;2.20;;;;;12.00;96010.00;;;;4967567;28;20214;-69
2024/04/02 06:41:44;;;;;;;7.97;3.07;;;;;12.30;95993.00;;;;4993728;28;20629;-68
2024/04/02 06:44:32;;;;;;;9.30;3.73;;;;;12.60;96004.00;;;;4970414;28;20255;-67
2024/04/02 06:47:21;;;;;;;13.40;4.97;;;;;13.00;96010.00;;;;4968390;28;20309;-68
2024/04/02 06:50:09;;;;;;;8.87;3.37;;;;;13.30;96011.00;;;;4973048;28;20210;-68
2024/04/02 06:52:57;;;;;;;5.40;2.40;;;;;13.60;96014.00;;;;4969593;28;20270;-69
2024/04/02 06:55:45;;;;;;;7.57;3.10;;;;;13.80;96017.00;;;;4973143;28;20225;-69
2024/04/02 06:58:32;;;;;;;9.43;3.83;;;;;13.80;96016.00;;;;4967416;28;20207;-69
2024/04/02 07:01:21;;;;;;;62.40;52.13;;;;;13.80;96023.00;;;;4967359;28;20214;-69
2024/04/02 07:04:09;;;;;;;78.07;69.83;;;;;14.40;96026.00;;;;4974159;28;20230;-68
2024/04/02 07:06:58;;;;;;;85.93;78.20;;;;;14.70;96033.00;;;;4967801;28;20702;-69
2024/04/02 07:09:45;;;;;;;62.93;58.50;;;;;15.00;96037.00;;;;4987114;28;20749;-69
2024/04/02 07:12:33;;;;;;;73.23;67.87;;;;;15.10;96043.00;;;;4971086;28;20195;-69
2024/04/02 07:15:21;;;;;;;64.63;59.50;;;;;15.20;96037.00;;;;4973919;28;20280;-68
2024/04/02 07:18:09;;;;;;;50.20;46.67;;;;;15.60;96064.00;;;;4962724;28;20203;-68
2024/04/02 07:21:02;;;;;;;73.23;68.53;;;;;15.40;96057.00;;;;4975202;28;20264;-68
2024/04/02 07:23:50;;;;;;;69.57;64.50;;;;;15.50;96064.00;;;;4965430;28;20223;-68
2024/04/02 07:26:38;;;;;;;61.30;57.57;;;;;15.60;96071.00;;;;4967552;28;20209;-69
2024/04/02 07:29:25;;;;;;;51.83;48.03;;;;;15.60;96090.00;;;;4971687;28;20209;-68
2024/04/02 07:32:13;;;;;;;40.33;36.73;;;;;15.50;96090.00;;;;4973917;28;20597;-69
2024/04/02 07:35:00;;;;;;;51.93;48.63;;;;;15.40;96083.00;;;;4967084;28;20234;-68
2024/04/02 07:37:49;;;;;;;56.17;52.90;;;;;15.30;96093.00;;;;4966526;28;20211;-68
2024/04/02 07:40:37;;;;;;;61.40;57.70;;;;;15.30;96094.00;;;;4967580;28;20211;-68
2024/04/02 07:43:25;;;;;;;62.23;58.50;;;;;15.50;96095.00;;;;4967935;28;20293;-69
2024/04/02 07:46:12;;;;;;;64.70;60.10;;;;;15.60;96092.00;;;;4973029;28;20229;-68
2024/04/02 07:49:00;;;;;;;63.97;60.17;;;;;15.80;96106.00;;;;4964561;28;20563;-68
2024/04/02 07:51:47;;;;;;;73.47;68.77;;;;;15.80;96112.00;;;;4967250;28;20219;-69
2024/04/02 07:54:37;;;;;;;77.93;72.43;;;;;16.00;96105.00;;;;4966959;28;20227;-68
2024/04/02 07:57:24;;;;;;;73.60;68.57;;;;;16.00;96109.00;;;;4966580;28;20213;-69
2024/04/02 08:00:13;;;;;;;63.87;59.47;;;;;16.40;96127.00;;;;4972391;28;20275;-69
2024/04/02 08:03:00;;;;;;;72.77;68.40;;;;;16.70;96120.00;;;;4974104;28;20218;-68
2024/04/02 08:05:56;;;;;;;61.00;57.63;;;;;16.80;96111.00;;;;4968764;28;20865;-69
2024/04/02 08:08:44;;;;;;;50.70;47.77;;;;;17.30;96123.00;;;;4971841;28;20286;-69
2024/04/02 08:11:33;;;;;;;55.57;52.27;;;;;17.70;96117.00;;;;4970280;28;20209;-69
2024/04/02 08:14:23;;;;;;;71.00;67.20;;;;;17.70;96124.00;;;;4967651;28;20238;-69
2024/04/02 08:17:11;;;;;;;37.90;35.73;;;;;18.30;96127.00;;;;4966165;28;20514;-68
2024/04/02 08:19:58;;;;;;;31.90;30.23;;;;;17.80;96119.00;;;;4966936;28;20211;-69
2024/04/02 08:22:47;;;;;;;16.23;15.10;;;;;18.20;96120.00;;;;4985744;28;20210;-69
2024/04/02 08:25:34;;;;;;;16.73;15.50;;;;;18.50;96112.00;;;;4971094;28;20250;-69
2024/04/02 08:28:23;;;;;;;18.77;12.63;;;;;17.90;96105.00;;;;4971054;28;20244;-69
2024/04/02 08:31:10;;;;;;;19.40;17.57;;;;;18.40;96107.00;;;;4959897;28;20695;-69
2024/04/02 08:33:59;;;;;;;23.57;22.07;;;;;18.60;96121.00;;;;4965274;28;20273;-70
2024/04/02 08:36:46;;;;;;;38.93;36.40;;;;;18.10;96114.00;;;;4966459;28;20273;-70
2024/04/02 08:39:34;;;;;;;13.17;11.90;;;;;18.50;96117.00;;;;4965622;28;20218;-70
2024/04/02 08:42:22;;;;;;;14.73;6.60;;;;;18.90;96106.00;;;;4970547;28;20213;-69
2024/04/02 08:45:11;;;;;;;9.47;4.33;;;;;17.40;96101.00;;;;4973412;28;20241;-66
2024/04/02 08:47:59;;;;;;;9.57;5.23;;;;;16.60;96107.00;;;;4973963;28;20767;-69
2024/04/02 08:50:47;;;;;;;9.30;4.67;;;;;16.90;96122.00;;;;4971999;28;20333;-70
2024/04/02 08:53:35;;;;;;;8.47;4.40;;;;;16.40;96128.00;;;;4959527;28;20209;-70
2024/04/02 08:56:22;;;;;;;16.90;7.17;;;;;18.60;96122.00;;;;4964355;28;21626;-67
2024/04/02 08:59:10;;;;;;;12.67;6.27;;;;;17.10;96133.00;;;;4963319;28;20229;-68
2024/04/02 09:02:00;;;;;;;12.37;7.67;;;;;16.70;96142.00;;;;4973098;28;20616;-68
2024/04/02 09:04:48;;;;;;;7.67;4.50;;;;;16.90;96130.00;;;;4972223;28;20660;-68
2024/04/02 09:07:36;;;;;;;9.43;6.43;;;;;18.30;96149.00;;;;4976918;28;20252;-67
2024/04/02 09:10:23;;;;;;;9.40;4.50;;;;;18.90;96139.00;;;;4976302;28;20300;-67
2024/04/02 09:13:11;;;;;;;20.43;18.83;;;;;17.80;96151.00;;;;4972880;28;20210;-71
2024/04/02 09:15:59;;;;;;;64.43;61.53;;;;;17.30;96153.00;;;;4971419;28;20218;-69
2024/04/02 09:18:49;;;;;;;7.20;3.23;;;;;18.40;96156.00;;;;4966472;28;20211;-69
2024/04/02 09:21:36;;;;;;;7.97;3.40;;;;;19.80;96166.00;;;;4969552;28;20261;-68
2024/04/02 09:24:24;;;;;;;45.63;42.50;;;;;18.90;96172.00;;;;4973916;28;20257;-68
2024/04/02 09:27:11;;;;;;;12.57;11.17;;;;;19.40;96176.00;;;;4976085;28;20210;-68
2024/04/02 09:30:00;;;;;;;77.13;72.97;;;;;19.80;96162.00;;;;4976389;28;20711;-69
2024/04/02 09:32:47;;;;;;;85.70;81.73;;;;;18.50;96185.00;;;;4969008;28;20284;-70
2024/04/02 09:36:05;;;;;;;9.27;7.87;;;;;19.80;96171.00;;;;4968913;28;20230;-70
2024/04/02 09:38:54;;;;;;;13.80;12.60;;;;;20.60;96193.00;;;;4976209;28;20277;-69
2024/04/02 09:41:42;;;;;;;10.80;9.73;;;;;20.80;96193.00;;;;4975740;28;20737;-69
2024/04/02 09:44:32;;;;;;;8.90;7.20;;;;;20.70;96196.00;;;;4979451;28;20900;-70
2024/04/02 09:47:20;;;;;;;12.37;7.37;;;;;21.80;96178.00;;;;4973968;28;20587;-69
2024/04/02 09:50:09;;;;;;;15.67;14.13;;;;;20.60;96216.00;;;;4973436;28;20581;-69
2024/04/02 09:52:58;;;;;;;9.07;7.27;;;;;20.40;96219.00;;;;4970987;28;20209;-69
2024/04/02 09:55:48;;;;;;;11.07;9.97;;;;;20.50;96212.00;;;;4970649;28;20293;-69
2024/04/02 09:58:35;;;;;;;62.13;59.33;;;;;19.00;96210.00;;;;4973360;28;20206;-70
2024/04/02 10:01:27;;;;;;;101.00;94.50;;;;;18.70;96203.00;;;;4974730;28;20214;-69
2024/04/02 10:04:17;;;;;;;121.67;114.90;;;;;18.10;96208.00;;;;4974386;28;20230;-71
2024/04/02 10:07:04;;;;;;;128.33;120.93;;;;;17.20;96203.00;;;;4966727;28;20195;-67
2024/04/02 10:09:57;;;;;;;112.83;106.87;;;;;17.00;96209.00;;;;4972089;28;20245;-66
2024/04/02 10:12:51;;;;;;;133.87;126.23;;;;;17.30;96213.00;;;;4969637;28;20199;-68
2024/04/02 10:15:39;;;;;;;114.23;107.53;;;;;17.90;96222.00;;;;4973716;28;20232;-69
2024/04/02 10:18:27;;;;;;;96.03;90.10;;;;;17.00;96220.00;;;;4966036;28;20198;-69
2024/04/02 10:21:14;;;;;;;77.53;72.63;;;;;16.80;96234.00;;;;4973594;28;20214;-71
2024/04/02 10:24:03;;;;;;;62.23;58.93;;;;;17.00;96233.00;;;;4968955;28;20231;-68
2024/04/02 10:26:53;;;;;;;80.97;76.27;;;;;17.50;96234.00;;;;4970340;28;20211;-68
2024/04/02 10:29:41;;;;;;;58.13;54.73;;;;;17.90;96220.00;;;;4976539;28;20234;-70
2024/04/02 10:32:34;;;;;;;70.77;66.53;;;;;18.00;96231.00;;;;4972803;28;20623;-68
2024/04/02 10:35:23;;;;;;;63.10;58.77;;;;;18.00;96218.00;;;;4970282;28;20215;-68
2024/04/02 10:38:10;;;;;;;92.77;87.43;;;;;18.70;96231.00;;;;4975123;28;20851;-69
2024/04/02 10:40:58;;;;;;;86.87;82.00;;;;;19.40;96223.00;;;;4967712;28;20599;-69
2024/04/02 10:43:48;;;;;;;102.13;96.43;;;;;20.00;96229.00;;;;4974056;28;20202;-69
2024/04/02 10:46:37;;;;;;;76.80;72.63;;;;;19.80;96235.00;;;;4971320;28;20270;-68
2024/04/02 10:49:24;;;;;;;79.93;75.20;;;;;19.80;96227.00;;;;4969346;28;20203;-68
2024/04/02 10:52:12;;;;;;;121.30;114.20;;;;;19.90;96240.00;;;;4971757;28;20626;-67
2024/04/02 10:54:59;;;;;;;145.20;136.53;;;;;20.00;96232.00;;;;4972324;28;20222;-68
2024/04/02 10:57:48;;;;;;;148.67;140.17;;;;;20.30;96234.00;;;;4966281;28;20213;-68
2024/04/02 11:00:36;;;;;;;132.20;124.87;;;;;20.30;96228.00;;;;4971560;28;20199;-68
2024/04/02 11:03:24;;;;;;;179.47;166.93;;;;;20.40;96246.00;;;;4971750;28;20249;-68
2024/04/02 11:06:12;;;;;;;64.23;60.23;;;;;20.30;96248.00;;;;4971974;28;20236;-68
2024/04/02 11:09:03;;;;;;;229.43;212.53;;;;;21.00;96215.00;;;;4956082;28;20215;-68
2024/04/02 11:11:52;;;;;;;254.73;233.73;;;;;21.50;96195.00;;;;4956281;28;20219;-67
2024/04/02 11:14:40;;;;;;;239.37;221.23;;;;;20.60;96246.00;;;;4957690;28;20229;-67
2024/04/02 11:17:29;;;;;;;276.67;254.30;;;;;20.50;96256.00;;;;4959096;28;20215;-67
2024/04/02 11:20:17;;;;;;;300.30;271.57;;;;;20.20;96253.00;;;;4970517;28;20260;-67
2024/04/02 11:26:19;;;;;;;65.53;51.77;;;;;20.10;96258.00;;;;4955529;28;20240;-67
2024/04/02 11:29:08;;;;;;;173.07;153.03;;;;;20.30;96262.00;;;;4960040;28;20211;-67
2024/04/02 11:31:55;;;;;;;153.60;144.70;;;;;20.20;96253.00;;;;4958249;28;20211;-67
2024/04/02 11:34:45;;;;;;;87.13;82.03;;;;;20.10;96264.00;;;;4955856;28;20226;-67
2024/04/02 11:37:34;;;;;;;110.20;104.40;;;;;20.40;96271.00;;;;4961394;28;20298;-67
2024/04/02 11:40:21;;;;;;;147.90;138.83;;;;;20.50;96260.00;;;;4960078;28;20625;-67
2024/04/02 11:43:10;;;;;;;128.07;120.80;;;;;20.40;96254.00;;;;4959670;28;20779;-67
2024/04/02 11:45:58;;;;;;;143.67;135.73;;;;;20.80;96247.00;;;;4961775;28;20218;-67
2024/04/02 11:48:46;;;;;;;192.73;180.73;;;;;21.40;96179.00;;;;4961006;28;20206;-67
2024/04/02 11:51:35;;;;;;;253.73;232.10;;;;;22.40;96172.00;;;;4959269;28;20203;-68
2024/04/02 11:54:22;;;;;;;219.63;195.70;;;;;23.30;96186.00;;;;4962306;28;20262;-67
2024/04/02 12:00:17;;;;;;;408.03;349.47;;;;;23.40;96172.00;;;;4961525;28;20210;-69
2024/04/02 12:03:06;;;;;;;378.63;332.67;;;;;23.00;96149.00;;;;4964034;28;20222;-68
2024/04/02 12:05:54;;;;;;;410.30;348.50;;;;;24.20;96160.00;;;;4965198;28;20999;-68
2024/04/02 12:08:44;;;;;;;415.07;366.13;;;;;23.90;96151.00;;;;4963946;28;20995;-70
2024/04/02 12:11:32;;;;;;;426.10;381.57;;;;;24.40;96147.00;;;;4968730;28;20211;-69
2024/04/02 12:14:20;;;;;;;456.33;407.30;;;;;24.40;96151.00;;;;4959364;28;20226;-69
2024/04/02 12:17:08;;;;;;;481.57;431.97;;;;;26.60;96147.00;;;;4951799;28;20225;-68
2024/04/02 12:19:56;;;;;;;259.37;247.73;;;;;26.70;96149.00;;;;4954407;28;20303;-68
2024/04/02 12:22:44;;;;;;;369.10;351.00;;;;;27.50;96188.00;;;;4959393;28;20300;-68
2024/04/02 12:25:34;;;;;;;467.07;441.50;;;;;24.50;96220.00;;;;4961161;28;20219;-68
2024/04/02 12:28:21;;;;;;;363.23;346.47;;;;;22.60;96214.00;;;;4969035;28;20217;-68
2024/04/02 12:31:09;;;;;;;267.33;256.63;;;;;22.90;96213.00;;;;4971259;28;20590;-68
2024/04/02 12:33:56;;;;;;;162.60;156.13;;;;;21.80;96197.00;;;;4972074;28;20238;-67
2024/04/02 12:36:45;;;;;;;114.20;109.13;;;;;23.10;96218.00;;;;4980268;28;20207;-67
2024/04/02 12:39:34;;;;;;;92.33;87.60;;;;;23.10;96219.00;;;;4973654;28;20664;-67
2024/04/02 12:42:24;;;;;;;64.73;60.67;;;;;22.90;96219.00;;;;4970362;28;20210;-67
2024/04/02 12:45:11;;;;;;;59.93;56.87;;;;;22.60;96211.00;;;;4982597;28;20230;-66
2024/04/02 12:47:59;;;;;;;44.73;42.40;;;;;22.60;96207.00;;;;4963158;28;20207;-67
2024/04/02 12:50:51;;;;;;;43.10;40.90;;;;;22.60;96210.00;;;;4966666;28;20213;-67
2024/04/02 12:53:39;;;;;;;38.07;35.67;;;;;22.50;96210.00;;;;4964060;28;20216;-67
2024/04/02 12:56:26;;;;;;;33.47;30.33;;;;;22.30;96227.00;;;;4968656;28;20282;-67
2024/04/02 12:59:15;;;;;;;28.50;26.33;;;;;21.90;96228.00;;;;4980010;28;20211;-66
2024/04/02 13:02:04;;;;;;;21.30;18.97;;;;;20.40;96228.00;;;;4967219;28;20211;-66
2024/04/02 13:04:51;;;;;;;11.83;10.77;;;;;20.30;96223.00;;;;4969632;28;20230;-68
2024/04/02 13:07:41;;;;;;;8.97;6.37;;;;;20.00;96239.00;;;;4970130;28;20585;-67
2024/04/02 13:10:28;;;;;;;20.03;9.03;;;;;20.00;96232.00;;;;4974761;28;20743;-67
2024/04/02 13:13:16;;;;;;;12.00;5.57;;;;;20.20;96241.00;;;;4970543;28;20221;-67
2024/04/02 13:16:30;;;;;;;12.50;5.37;;;;;20.50;96248.00;;;;4970547;28;20203;-67
2024/04/02 13:19:18;;;;;;;14.83;6.07;;;;;20.40;96254.00;;;;4971152;28;20687;-67
2024/04/02 13:22:05;;;;;;;13.20;5.33;;;;;19.70;96251.00;;;;4970908;28;20214;-67
2024/04/02 13:24:53;;;;;;;12.93;5.30;;;;;19.70;96252.00;;;;4978978;28;20717;-66
2024/04/02 13:27:41;;;;;;;4.63;2.37;;;;;20.10;96257.00;;;;4974020;28;20212;-66
2024/04/02 13:30:29;;;;;;;14.83;5.90;;;;;20.80;96254.00;;;;4974262;28;20926;-66
2024/04/02 13:33:18;;;;;;;12.00;5.03;;;;;20.20;96266.00;;;;4975447;28;20683;-67
2024/04/02 13:36:09;;;;;;;4.93;2.60;;;;;19.20;96262.00;;;;4976862;28;20203;-66
2024/04/02 13:38:57;;;;;;;7.50;3.33;;;;;18.40;96262.00;;;;4971554;28;20211;-65
2024/04/02 13:41:45;;;;;;;9.00;3.63;;;;;18.90;96253.00;;;;4973655;28;20207;-67
2024/04/02 13:44:32;;;;;;;19.67;7.67;;;;;19.50;96251.00;;;;4972809;28;20226;-68
2024/04/02 13:47:20;;;;;;;18.30;7.03;;;;;18.40;96244.00;;;;4974369;28;20218;-68
2024/04/02 13:50:09;;;;;;;11.23;5.33;;;;;18.30;96262.00;;;;4971687;28;20301;-68
2024/04/02 13:52:57;;;;;;;8.17;4.50;;;;;18.30;96277.00;;;;4986198;28;20708;-66
2024/04/02 13:55:54;;;;;;;11.13;6.23;;;;;19.00;96291.00;;;;4971658;28;20225;-67